Time;durP1;ratioP1;P1;durP2;ratioP2;P2;SDS_P1;SDS_P2;PMS_P1;PMS_P2;Temp;Humidity;BMP_temperature;BMP_pressure;BME280_temperature;BME280_humidity;BME280_pressure;Samples;Min_cycle;Max_cycle;Signal;HPM_P1;HPM_P2
2021/11/01 00:00:17;;;;;;;1.80;1.70;;;16.70;99.90;;;;;;5038624;28;20026;-83
2021/11/01 00:02:44;;;;;;;1.52;1.35;;;16.50;99.90;;;;;;5021099;28;20036;-84
2021/11/01 00:05:11;;;;;;;1.40;1.30;;;16.30;99.90;;;;;;5037986;28;20029;-84
2021/11/01 00:07:37;;;;;;;1.60;1.50;;;16.20;99.90;;;;;;5037780;28;20048;-84
2021/11/01 00:10:04;;;;;;;1.88;1.60;;;16.70;99.90;;;;;;5034929;28;20022;-84
2021/11/01 00:12:30;;;;;;;3.15;1.80;;;16.30;99.90;;;;;;5036064;28;20031;-84
2021/11/01 00:14:57;;;;;;;1.80;1.70;;;16.50;99.90;;;;;;5038635;28;20105;-84
2021/11/01 00:17:24;;;;;;;2.13;1.83;;;16.60;99.90;;;;;;5037876;28;20567;-84
2021/11/01 00:19:50;;;;;;;2.60;1.80;;;16.60;99.90;;;;;;5037913;28;20032;-85
2021/11/01 00:22:16;;;;;;;3.90;2.10;;;16.60;99.90;;;;;;5036905;28;20037;-84
2021/11/01 00:24:42;;;;;;;2.42;2.13;;;16.60;99.90;;;;;;5034934;28;20032;-84
2021/11/01 00:27:07;;;;;;;2.75;2.30;;;16.60;99.90;;;;;;5037612;28;20116;-84
2021/11/01 00:29:33;;;;;;;2.63;2.17;;;16.60;99.90;;;;;;5036654;28;20025;-84
2021/11/01 00:31:59;;;;;;;2.40;2.20;;;16.50;99.90;;;;;;5037255;28;20481;-84
2021/11/01 00:34:24;;;;;;;2.97;1.90;;;16.50;99.90;;;;;;5037825;28;20424;-84
2021/11/01 00:36:53;;;;;;;2.33;2.10;;;16.60;99.90;;;;;;5033153;28;20095;-84
2021/11/01 00:39:19;;;;;;;4.00;2.40;;;16.70;99.90;;;;;;5037640;28;20017;-89
2021/11/01 00:41:44;;;;;;;2.78;2.13;;;16.60;99.90;;;;;;5037282;28;20087;-84
2021/11/01 00:44:10;;;;;;;3.83;2.25;;;16.60;99.90;;;;;;5037244;28;20444;-85
2021/11/01 00:46:36;;;;;;;3.50;1.85;;;16.80;99.90;;;;;;5036676;28;20039;-85
2021/11/01 00:49:03;;;;;;;2.15;1.92;;;16.50;99.90;;;;;;5034633;28;20112;-84
2021/11/01 00:51:28;;;;;;;3.67;2.75;;;16.80;99.90;;;;;;5035062;28;20053;-85
2021/11/01 00:53:54;;;;;;;3.53;2.00;;;16.50;99.90;;;;;;5038103;28;20068;-85
2021/11/01 00:56:20;;;;;;;3.08;1.75;;;16.50;99.90;;;;;;5037590;28;20044;-85
2021/11/01 00:58:46;;;;;;;2.30;2.00;;;16.50;99.90;;;;;;5037374;28;20031;-85
2021/11/01 01:01:15;;;;;;;3.25;1.85;;;16.50;99.90;;;;;;5035266;28;20053;-84
2021/11/01 01:03:43;;;;;;;4.75;2.05;;;16.50;99.90;;;;;;5034998;28;20021;-84
2021/11/01 01:06:09;;;;;;;3.25;2.10;;;16.50;99.90;;;;;;5036650;28;20088;-84
2021/11/01 01:08:34;;;;;;;2.83;2.28;;;16.50;99.90;;;;;;5038146;28;20037;-85
2021/11/01 01:11:00;;;;;;;4.60;2.40;;;16.50;99.90;;;;;;5037302;28;20036;-84
2021/11/01 01:13:29;;;;;;;3.92;2.40;;;16.40;99.90;;;;;;5037104;28;20109;-85
2021/11/01 01:16:41;;;;;;;3.33;2.13;;;16.30;99.90;;;;;;5017958;28;20037;-84
2021/11/01 01:18:44;;;;;;;4.72;2.88;;;16.40;99.90;;;;;;5025857;28;20050;-85
2021/11/01 01:23:59;;;;;;;3.42;2.38;;;16.50;99.90;;;;;;4960995;28;20036;-84
2021/11/01 01:26:25;;;;;;;3.05;2.75;;;16.50;99.90;;;;;;4968881;28;20058;-84
2021/11/01 01:28:52;;;;;;;3.28;2.90;;;16.50;99.90;;;;;;4972046;28;20050;-84
2021/11/01 01:31:18;;;;;;;4.90;2.85;;;16.40;99.90;;;;;;4972150;28;20050;-83
2021/11/01 01:33:44;;;;;;;3.03;2.50;;;16.30;99.90;;;;;;4971981;28;20503;-85
2021/11/01 01:36:09;;;;;;;3.47;1.85;;;16.10;99.90;;;;;;4959442;28;20072;-85
2021/11/01 01:38:35;;;;;;;1.63;0.88;;;15.90;99.90;;;;;;4962294;28;20633;-84
2021/11/01 01:41:12;;;;;;;1.05;0.50;;;15.70;99.90;;;;;;4966088;28;20130;-84
2021/11/01 01:43:38;;;;;;;2.00;0.60;;;15.40;99.90;;;;;;4971472;28;20027;-85
2021/11/01 01:46:04;;;;;;;0.50;0.50;;;15.30;99.90;;;;;;4971511;28;20569;-85
2021/11/01 01:48:29;;;;;;;2.65;0.68;;;15.40;99.90;;;;;;4971661;28;20086;-85
2021/11/01 01:50:55;;;;;;;2.15;0.65;;;15.60;99.90;;;;;;4971909;28;20043;-84
2021/11/01 01:53:23;;;;;;;2.30;0.40;;;15.20;99.90;;;;;;4972018;28;20554;-84
2021/11/01 01:55:50;;;;;;;1.20;0.45;;;15.10;99.90;;;;;;4971700;28;20026;-84
2021/11/01 01:58:16;;;;;;;0.80;0.40;;;15.00;99.90;;;;;;4973679;28;20101;-84
2021/11/01 02:03:16;;;;;;;0.40;0.30;;;14.70;99.90;;;;;;5036135;28;20038;-84
2021/11/01 02:05:47;;;;;;;1.75;0.30;;;14.70;99.90;;;;;;5036518;28;20560;-85
2021/11/01 02:08:16;;;;;;;2.88;0.47;;;14.80;99.90;;;;;;5035391;28;20053;-85
2021/11/01 02:10:54;;;;;;;1.48;0.30;;;14.80;99.90;;;;;;5036555;28;20027;-85
2021/11/01 02:13:25;;;;;;;1.73;0.50;;;14.90;99.90;;;;;;5035249;28;20477;-85
2021/11/01 02:15:54;;;;;;;1.20;0.50;;;14.80;99.90;;;;;;5032017;28;20714;-85
2021/11/01 02:18:23;;;;;;;1.20;0.52;;;14.70;99.90;;;;;;5043383;28;20382;-84
2021/11/01 02:21:15;;;;;;;1.08;0.30;;;14.80;99.90;;;;;;5036292;28;20026;-85
2021/11/01 02:24:05;;;;;;;1.25;0.50;;;14.70;99.90;;;;;;5035367;28;20037;-84
2021/11/01 02:26:35;;;;;;;1.38;0.55;;;15.30;99.90;;;;;;5036360;28;20033;-85
2021/11/01 02:29:03;;;;;;;1.70;0.50;;;14.70;99.90;;;;;;5035895;28;20041;-84
2021/11/01 02:31:29;;;;;;;0.88;0.43;;;15.00;99.90;;;;;;5035789;28;20079;-84
2021/11/01 02:33:56;;;;;;;1.00;0.40;;;14.80;99.90;;;;;;5031677;28;20082;-85
2021/11/01 02:36:28;;;;;;;2.17;0.80;;;14.60;99.90;;;;;;5018041;28;20419;-85
2021/11/01 02:38:58;;;;;;;0.73;0.47;;;14.60;99.90;;;;;;5036096;28;20069;-85
2021/11/01 02:41:27;;;;;;;1.92;0.57;;;14.50;99.90;;;;;;5018526;28;20033;-85
2021/11/01 02:43:58;;;;;;;1.52;0.50;;;14.50;99.90;;;;;;5018865;28;20060;-85
2021/11/01 02:46:26;;;;;;;2.08;0.57;;;14.50;99.90;;;;;;5036208;28;20489;-85
2021/11/01 02:48:53;;;;;;;2.15;0.50;;;14.50;99.90;;;;;;5031126;28;20033;-84
2021/11/01 02:51:20;;;;;;;1.02;0.50;;;14.50;99.90;;;;;;5035710;28;20556;-84
2021/11/01 02:53:53;;;;;;;0.50;0.22;;;14.90;99.90;;;;;;5037780;28;20041;-85
2021/11/01 02:56:20;;;;;;;3.25;0.82;;;14.40;99.90;;;;;;5021615;28;20038;-85
2021/11/01 02:58:46;;;;;;;0.77;0.57;;;14.90;99.90;;;;;;5039173;28;20067;-83
2021/11/01 03:01:19;;;;;;;2.00;0.73;;;14.70;99.90;;;;;;5037726;28;20033;-85
2021/11/01 03:03:48;;;;;;;2.13;0.60;;;14.30;99.90;;;;;;5035977;28;20400;-83
2021/11/01 03:06:19;;;;;;;2.00;0.68;;;14.30;99.90;;;;;;5038932;28;20026;-85
2021/11/01 03:08:45;;;;;;;1.35;0.68;;;14.40;99.90;;;;;;5038477;28;20470;-85
2021/11/01 03:11:14;;;;;;;1.40;0.60;;;14.30;99.90;;;;;;5029395;28;20481;-85
2021/11/01 03:13:40;;;;;;;1.98;0.75;;;14.30;99.90;;;;;;5048410;28;20467;-84
2021/11/01 03:16:07;;;;;;;2.33;0.60;;;14.30;99.90;;;;;;5036561;28;20036;-85
2021/11/01 03:18:56;;;;;;;3.35;0.70;;;14.30;99.90;;;;;;5037240;28;20461;-85
2021/11/01 03:21:22;;;;;;;1.30;0.70;;;14.30;99.90;;;;;;5032543;28;20056;-84
2021/11/01 03:23:50;;;;;;;2.85;1.00;;;14.30;99.90;;;;;;5038929;28;20073;-85
2021/11/01 03:26:24;;;;;;;1.42;0.90;;;14.30;99.90;;;;;;5037938;28;20045;-84
2021/11/01 03:28:52;;;;;;;1.67;1.05;;;14.30;99.90;;;;;;5039458;28;20037;-84
2021/11/01 03:31:22;;;;;;;1.85;0.80;;;14.90;99.90;;;;;;5038601;28;20063;-84
2021/11/01 03:33:48;;;;;;;2.78;0.73;;;14.40;99.90;;;;;;5034990;28;20087;-84
2021/11/01 03:36:14;;;;;;;1.52;0.68;;;14.30;99.90;;;;;;5039878;28;20101;-84
2021/11/01 03:38:42;;;;;;;2.22;0.73;;;14.70;99.90;;;;;;5039022;28;20112;-84
2021/11/01 03:41:10;;;;;;;1.88;0.70;;;14.00;99.90;;;;;;5038501;28;20033;-84
2021/11/01 03:43:56;;;;;;;3.42;1.15;;;14.20;99.90;;;;;;5038833;28;20025;-84
2021/11/01 03:46:35;;;;;;;1.58;0.80;;;14.80;99.90;;;;;;5037780;28;20392;-84
2021/11/01 03:49:04;;;;;;;2.25;0.85;;;14.40;99.90;;;;;;5019580;28;20033;-84
2021/11/01 03:54:02;;;;;;;1.63;0.85;;;14.90;99.90;;;;;;5038098;28;20033;-84
2021/11/01 03:56:28;;;;;;;2.15;1.08;;;14.50;99.90;;;;;;5038068;28;20028;-84
2021/11/01 03:58:54;;;;;;;1.27;0.70;;;14.50;99.90;;;;;;5038184;28;20051;-84
2021/11/01 04:01:21;;;;;;;2.78;0.80;;;14.50;99.90;;;;;;5038326;28;20028;-84
2021/11/01 04:03:47;;;;;;;1.85;0.70;;;14.40;99.90;;;;;;5034818;28;22659;-84
2021/11/01 04:06:14;;;;;;;1.77;0.60;;;14.80;99.90;;;;;;5037022;28;20054;-84
2021/11/01 04:08:40;;;;;;;0.82;0.60;;;14.30;99.90;;;;;;5038220;28;20038;-84
2021/11/01 04:11:06;;;;;;;1.55;0.60;;;14.30;99.90;;;;;;5038094;28;20030;-84
2021/11/01 04:13:34;;;;;;;2.28;0.85;;;14.70;99.90;;;;;;5033513;28;20048;-84
2021/11/01 04:16:10;;;;;;;3.13;0.60;;;14.20;99.90;;;;;;5049696;28;20041;-84
2021/11/01 04:21:20;;;;;;;3.20;1.95;;;14.50;99.90;;;;;;5044903;28;20027;-84
2021/11/01 04:23:46;;;;;;;1.48;1.02;;;14.70;99.90;;;;;;5038116;28;20034;-84
2021/11/01 04:26:15;;;;;;;1.15;0.80;;;14.30;99.90;;;;;;5036939;28;20093;-85
2021/11/01 04:28:42;;;;;;;1.45;0.73;;;14.20;99.90;;;;;;5037453;28;20095;-85
2021/11/01 04:31:23;;;;;;;3.58;0.88;;;14.20;99.90;;;;;;5035412;28;20551;-85
2021/11/01 04:33:50;;;;;;;1.58;0.55;;;14.10;99.90;;;;;;5033490;28;20460;-85
2021/11/01 04:36:16;;;;;;;1.52;0.47;;;14.10;99.90;;;;;;5037555;28;20017;-84
2021/11/01 04:39:02;;;;;;;1.95;0.60;;;14.10;99.90;;;;;;5037696;28;20089;-84
2021/11/01 04:54:54;;;;;;;1.65;0.80;;;14.00;99.90;;;;;;5017290;28;20029;-84
2021/11/01 04:57:21;;;;;;;2.67;1.00;;;14.40;99.90;;;;;;5044625;28;20385;-84
2021/11/01 04:59:48;;;;;;;1.55;0.70;;;13.90;99.90;;;;;;5036849;28;20113;-84
2021/11/01 05:02:14;;;;;;;1.42;0.65;;;13.80;99.90;;;;;;5036740;28;20041;-84
2021/11/01 05:04:41;;;;;;;0.82;0.50;;;14.20;99.90;;;;;;5037288;28;20031;-84
2021/11/01 05:07:08;;;;;;;1.20;0.73;;;13.80;99.90;;;;;;5034218;28;20056;-85
2021/11/01 05:09:38;;;;;;;0.77;0.47;;;13.80;99.90;;;;;;5034983;28;20061;-84
2021/11/01 05:12:20;;;;;;;1.63;0.57;;;13.80;99.90;;;;;;5036545;28;20025;-85
2021/11/01 05:17:42;;;;;;;1.95;0.57;;;13.70;99.90;;;;;;5036619;28;20026;-85
2021/11/01 05:20:16;;;;;;;1.38;0.65;;;13.70;99.90;;;;;;5036963;28;20033;-84
2021/11/01 05:28:01;;;;;;;0.98;0.60;;;13.70;99.90;;;;;;5032344;28;20050;-84
2021/11/01 05:31:04;;;;;;;1.05;0.57;;;13.70;99.90;;;;;;5044531;28;20025;-84
2021/11/01 05:35:54;;;;;;;1.60;0.85;;;13.70;99.90;;;;;;5036874;28;20026;-84
2021/11/01 05:38:20;;;;;;;1.20;0.60;;;13.60;99.90;;;;;;5036602;28;20036;-84
2021/11/01 05:40:46;;;;;;;1.25;0.50;;;13.60;99.90;;;;;;5036483;28;20021;-84
2021/11/01 05:43:11;;;;;;;1.13;0.68;;;13.50;99.90;;;;;;5033722;28;20025;-85
2021/11/01 05:45:37;;;;;;;1.13;0.60;;;13.30;99.90;;;;;;5033522;28;20520;-84
2021/11/01 05:48:03;;;;;;;2.92;0.80;;;13.70;99.90;;;;;;5036631;28;20115;-84
2021/11/01 05:50:32;;;;;;;1.98;0.70;;;13.40;99.90;;;;;;5036331;28;20112;-84
2021/11/01 05:53:03;;;;;;;1.25;0.60;;;13.40;99.90;;;;;;5036395;28;20111;-84
2021/11/01 05:58:08;;;;;;;1.15;0.50;;;13.50;99.90;;;;;;5032405;28;20029;-84
2021/11/01 06:03:28;;;;;;;1.20;0.60;;;13.20;99.90;;;;;;5034992;28;20022;-84
2021/11/01 06:13:51;;;;;;;1.70;0.90;;;13.40;99.90;;;;;;5036904;28;20030;-84
2021/11/01 06:16:16;;;;;;;1.55;0.80;;;13.40;99.90;;;;;;5034717;28;20472;-84
2021/11/01 06:18:42;;;;;;;2.03;0.88;;;13.20;99.90;;;;;;5033782;28;20022;-84
2021/11/01 06:21:14;;;;;;;2.38;0.80;;;13.30;99.90;;;;;;5036344;28;20029;-84
2021/11/01 06:23:46;;;;;;;1.65;1.10;;;13.70;99.90;;;;;;5036992;28;20026;-84
2021/11/01 06:26:13;;;;;;;0.85;0.60;;;13.30;99.90;;;;;;5036030;28;20037;-84
2021/11/01 06:28:43;;;;;;;1.13;0.63;;;13.10;99.90;;;;;;5038460;28;20508;-84
2021/11/01 06:31:13;;;;;;;2.15;0.90;;;13.00;99.90;;;;;;5037297;28;20021;-84
2021/11/01 07:14:27;;;;;;;1.92;1.33;;;13.90;99.90;;;;;;4993888;28;20533;-84
2021/11/01 07:19:37;;;;;;;1.10;0.98;;;13.90;99.90;;;;;;4982530;28;20057;-84
2021/11/01 08:49:14;;;;;;;3.05;2.30;;;14.10;99.90;;;;;;4988214;28;20042;-83
2021/11/01 09:23:45;;;;;;;3.55;2.13;;;14.10;99.90;;;;;;4995422;28;20035;-81
2021/11/01 09:26:20;;;;;;;2.85;2.03;;;14.40;99.90;;;;;;4995112;28;20599;-82
2021/11/01 09:28:54;;;;;;;2.58;2.03;;;14.30;99.90;;;;;;4994388;28;20396;-82
2021/11/01 09:36:55;;;;;;;1.67;1.50;;;14.80;99.90;;;;;;4991730;28;20074;-82
2021/11/01 09:42:05;;;;;;;2.60;1.45;;;14.70;99.90;;;;;;4994823;28;20081;-82
2021/11/01 09:44:32;;;;;;;3.08;1.60;;;14.70;99.90;;;;;;4991640;28;20113;-82
2021/11/01 09:47:03;;;;;;;2.22;1.60;;;14.60;99.90;;;;;;4988457;28;20047;-82
2021/11/01 09:49:29;;;;;;;2.25;1.60;;;14.70;99.90;;;;;;4994693;28;20041;-82
2021/11/01 09:51:58;;;;;;;1.58;1.42;;;14.70;99.90;;;;;;5003394;28;20033;-82
2021/11/01 09:54:26;;;;;;;1.48;1.38;;;14.60;99.90;;;;;;5031559;28;20084;-82
2021/11/01 09:57:06;;;;;;;1.52;1.30;;;14.50;99.90;;;;;;5038020;28;20021;-81
2021/11/01 09:59:41;;;;;;;1.00;1.00;;;14.40;99.90;;;;;;5036216;28;20037;-82
2021/11/01 10:02:12;;;;;;;0.90;0.90;;;14.30;99.90;;;;;;5035743;28;20461;-84
2021/11/01 10:04:43;;;;;;;1.30;1.10;;;14.20;99.90;;;;;;5036672;28;20025;-85
2021/11/01 10:07:19;;;;;;;1.30;0.85;;;14.30;99.90;;;;;;5033021;28;20050;-84
2021/11/01 10:09:47;;;;;;;2.17;0.98;;;14.20;99.90;;;;;;5033407;28;20033;-85
2021/11/01 10:12:33;;;;;;;1.55;0.90;;;14.50;99.90;;;;;;5035712;28;20481;-84
2021/11/01 10:18:08;;;;;;;0.45;0.40;;;14.60;99.90;;;;;;5026976;28;20028;-82
2021/11/01 10:20:39;;;;;;;1.02;0.50;;;14.90;99.90;;;;;;5035868;28;20451;-82
2021/11/01 10:23:20;;;;;;;1.25;0.90;;;14.50;99.90;;;;;;5036292;28;20033;-82
2021/11/01 10:25:46;;;;;;;4.40;1.38;;;14.40;99.90;;;;;;5036167;28;20044;-83
2021/11/01 10:28:12;;;;;;;1.25;0.80;;;14.50;99.90;;;;;;5034422;28;20120;-83
2021/11/01 10:30:38;;;;;;;2.60;0.73;;;14.50;99.90;;;;;;5033464;28;20121;-83
2021/11/01 10:33:07;;;;;;;1.23;0.57;;;14.60;99.90;;;;;;5035644;28;20033;-83
2021/11/01 10:35:34;;;;;;;1.45;0.68;;;14.80;99.90;;;;;;5035157;28;20083;-83
2021/11/01 10:38:30;;;;;;;0.98;0.55;;;14.80;99.90;;;;;;5036415;28;20057;-82
2021/11/01 10:57:27;;;;;;;2.00;1.20;;;16.10;99.90;;;;;;5037648;28;20129;-83
2021/11/01 11:13:44;;;;;;;2.85;1.00;;;15.50;99.90;;;;;;5036699;28;20094;-83
2021/11/01 11:16:17;;;;;;;1.20;0.90;;;15.40;99.90;;;;;;5037384;28;20029;-83
2021/11/01 11:43:45;;;;;;;1.10;0.60;;;15.10;99.90;;;;;;5039292;28;20078;-89
2021/11/01 11:49:09;;;;;;;2.00;1.00;;;15.30;99.90;;;;;;5020595;28;20052;-86
2021/11/01 11:51:37;;;;;;;1.80;0.88;;;15.20;99.90;;;;;;5037464;28;20022;-86
2021/11/01 11:54:03;;;;;;;1.70;0.70;;;15.60;99.90;;;;;;5038247;28;20385;-82
2021/11/01 11:56:30;;;;;;;2.30;0.95;;;15.70;99.90;;;;;;5038917;28;20034;-83
2021/11/01 11:59:10;;;;;;;1.85;0.60;;;15.90;99.90;;;;;;5038143;28;20516;-82
2021/11/01 12:01:39;;;;;;;1.90;0.63;;;16.00;99.90;;;;;;5038394;28;20029;-83
2021/11/01 12:04:19;;;;;;;2.55;0.80;;;15.80;99.90;;;;;;5035694;28;20022;-85
2021/11/01 12:07:14;;;;;;;2.92;0.80;;;16.20;99.90;;;;;;5035219;28;20043;-84
2021/11/01 12:09:54;;;;;;;1.75;0.85;;;15.80;99.90;;;;;;5033932;28;20085;-84
2021/11/01 12:12:40;;;;;;;1.52;0.60;;;15.90;99.90;;;;;;5038010;28;20482;-84
2021/11/01 12:17:51;;;;;;;2.33;0.98;;;15.50;99.90;;;;;;5038602;28;20083;-88
2021/11/01 12:20:21;;;;;;;2.97;0.90;;;15.60;99.90;;;;;;5038678;28;20026;-84
2021/11/01 12:22:50;;;;;;;1.67;0.80;;;16.00;99.90;;;;;;5020063;28;20053;-83
2021/11/01 12:25:18;;;;;;;3.88;1.10;;;15.50;99.90;;;;;;5036195;28;20113;-83
2021/11/01 12:27:56;;;;;;;2.35;0.80;;;15.50;99.90;;;;;;5035046;28;20045;-83
2021/11/01 12:30:42;;;;;;;3.00;1.23;;;15.40;99.90;;;;;;5046357;28;20081;-84
2021/11/01 12:33:09;;;;;;;2.78;1.55;;;15.30;99.90;;;;;;5035942;28;20075;-84
2021/11/01 12:35:42;;;;;;;2.33;1.13;;;15.10;99.90;;;;;;5038041;28;20125;-84
2021/11/01 12:38:14;;;;;;;3.10;1.00;;;15.30;99.90;;;;;;5037855;28;20430;-84
2021/11/01 12:43:52;;;;;;;2.38;0.90;;;14.50;99.90;;;;;;5036897;28;20021;-83
2021/11/01 12:57:16;;;;;;;1.98;0.90;;;14.90;99.90;;;;;;5037837;28;20449;-83
2021/11/01 12:59:46;;;;;;;2.63;0.90;;;14.90;99.90;;;;;;5037640;28;20541;-83
2021/11/01 13:02:18;;;;;;;2.78;0.73;;;15.30;99.90;;;;;;5037028;28;20053;-83
2021/11/01 13:04:51;;;;;;;2.40;1.30;;;15.20;99.90;;;;;;5037849;28;20025;-83
2021/11/01 13:13:37;;;;;;;1.88;0.70;;;15.20;99.90;;;;;;5017592;28;20032;-83
2021/11/01 13:19:07;;;;;;;2.78;0.90;;;15.60;99.90;;;;;;5017413;28;20035;-83
2021/11/01 13:21:38;;;;;;;2.97;1.10;;;16.00;99.90;;;;;;5034733;28;20104;-83
2021/11/01 13:24:08;;;;;;;1.90;0.93;;;16.00;99.90;;;;;;5036583;28;20613;-83
2021/11/01 13:39:59;;;;;;;4.18;1.10;;;19.50;99.90;;;;;;5033262;28;20397;-84
2021/11/01 13:42:25;;;;;;;2.90;1.15;;;18.20;99.90;;;;;;5017723;28;20500;-84
2021/11/01 13:44:50;;;;;;;3.30;1.02;;;17.60;99.90;;;;;;5037108;28;20026;-83
2021/11/01 13:47:17;;;;;;;2.67;1.00;;;16.80;99.90;;;;;;5036861;28;20029;-84
2021/11/01 13:49:47;;;;;;;2.85;1.05;;;16.70;99.90;;;;;;5036702;28;20036;-84
2021/11/01 13:58:03;;;;;;;1.75;0.80;;;17.10;99.90;;;;;;5046855;28;20563;-84
2021/11/01 15:06:20;;;;;;;3.58;0.95;;;19.80;99.90;;;;;;4993776;28;20559;-83
2021/11/01 15:18:25;;;;;;;2.90;1.10;;;20.40;99.90;;;;;;4996884;28;20026;-83
2021/11/01 15:20:57;;;;;;;3.05;0.90;;;20.40;99.90;;;;;;4994672;28;20070;-83
2021/11/01 15:28:52;;;;;;;2.13;1.27;;;19.20;99.90;;;;;;4993124;28;20030;-83
2021/11/01 16:17:20;;;;;;;1.92;1.55;;;16.30;99.90;;;;;;4937758;29;20088;-82
2021/11/01 16:19:50;;;;;;;4.18;1.55;;;16.10;99.90;;;;;;4937358;29;20462;-83
2021/11/01 16:22:18;;;;;;;4.30;1.98;;;15.90;99.90;;;;;;4936218;29;20193;-82
2021/11/01 16:24:44;;;;;;;5.68;2.00;;;15.60;99.90;;;;;;4968295;28;20066;-83
2021/11/01 16:27:13;;;;;;;4.18;1.58;;;15.50;99.90;;;;;;4976508;28;20114;-82
2021/11/01 16:32:45;;;;;;;5.72;2.15;;;15.30;99.90;;;;;;4918089;29;20044;-83
2021/11/01 16:35:13;;;;;;;5.68;2.35;;;14.70;99.90;;;;;;4918509;29;20048;-83
2021/11/01 16:37:50;;;;;;;5.72;2.50;;;14.90;99.90;;;;;;4943590;28;20039;-83
2021/11/01 16:40:15;;;;;;;3.30;2.17;;;15.00;99.90;;;;;;4958172;28;20041;-83
2021/11/01 16:42:43;;;;;;;5.05;2.35;;;14.40;99.90;;;;;;4955701;28;20035;-83
2021/11/01 16:47:46;;;;;;;5.10;2.05;;;14.30;99.90;;;;;;4960099;28;20039;-83
2021/11/01 16:50:16;;;;;;;3.72;2.20;;;14.10;99.90;;;;;;4959942;28;20035;-82
2021/11/01 16:52:44;;;;;;;5.38;2.50;;;13.90;99.90;;;;;;4957058;28;20019;-83
2021/11/01 16:55:26;;;;;;;4.50;2.30;;;14.30;99.90;;;;;;4958181;28;20515;-83
2021/11/01 16:57:59;;;;;;;4.13;2.53;;;14.00;99.90;;;;;;4956127;28;20538;-82
2021/11/01 17:00:35;;;;;;;7.03;3.00;;;13.90;99.90;;;;;;4967761;28;20166;-82
2021/11/01 17:03:22;;;;;;;6.57;3.75;;;13.90;99.90;;;;;;4958489;28;20031;-83
2021/11/01 17:06:10;;;;;;;8.50;4.00;;;13.70;99.90;;;;;;4959857;28;20539;-82
2021/11/01 17:08:59;;;;;;;9.98;4.32;;;14.00;99.90;;;;;;5012416;28;20083;-83
2021/11/01 17:22:36;;;;;;;7.82;3.80;;;13.30;99.90;;;;;;5036712;28;20109;-83
2021/11/01 17:25:15;;;;;;;5.25;3.67;;;13.10;99.90;;;;;;5019681;28;20017;-82
2021/11/01 18:51:06;;;;;;;6.47;4.78;;;11.40;99.90;;;;;;5040344;28;20202;-82
2021/11/01 18:53:41;;;;;;;7.28;4.78;;;11.40;99.90;;;;;;5039904;28;20103;-82
2021/11/01 18:56:09;;;;;;;8.10;4.43;;;11.60;99.90;;;;;;5040178;28;20053;-82
2021/11/01 18:58:39;;;;;;;8.77;4.50;;;11.30;99.90;;;;;;5040304;28;20036;-83
2021/11/01 19:01:09;;;;;;;7.18;4.35;;;11.40;99.90;;;;;;5036628;28;20026;-82
2021/11/01 19:03:42;;;;;;;9.00;4.93;;;11.60;99.90;;;;;;5037287;28;20244;-83
2021/11/01 19:09:43;;;;;;;6.20;3.88;;;11.20;99.90;;;;;;5039686;28;20045;-82
2021/11/01 20:14:21;;;;;;;7.07;3.50;;;11.10;99.90;;;;;;5038626;28;20048;-82
2021/11/01 21:24:32;;;;;;;7.80;3.67;;;11.40;99.90;;;;;;5037184;28;20027;-83
2021/11/01 21:26:23;;;;;;;5.78;3.90;;;10.50;99.90;;;;;;5037595;28;20722;-83
2021/11/01 21:28:50;;;;;;;6.18;4.00;;;10.50;99.90;;;;;;5036696;28;20139;-86
2021/11/01 21:31:16;;;;;;;5.28;3.67;;;10.60;99.90;;;;;;5035335;28;20022;-85
2021/11/01 21:33:44;;;;;;;7.38;3.33;;;10.90;99.90;;;;;;5034410;28;20072;-85
2021/11/01 21:36:12;;;;;;;5.05;3.65;;;10.40;99.90;;;;;;5035022;28;20500;-85
2021/11/01 21:38:38;;;;;;;6.20;3.83;;;10.20;99.90;;;;;;5036948;28;20394;-83
2021/11/01 21:41:04;;;;;;;21.75;13.77;;;10.60;99.90;;;;;;5037019;28;20037;-85
2021/11/01 21:43:29;;;;;;;5.95;3.97;;;10.40;99.90;;;;;;5036966;28;20031;-82
2021/11/01 21:45:55;;;;;;;8.98;5.60;;;10.80;99.90;;;;;;5016921;28;20405;-83
2021/11/01 21:48:21;;;;;;;6.97;4.28;;;10.80;99.90;;;;;;5036376;28;20026;-83
2021/11/01 21:50:47;;;;;;;14.93;9.48;;;10.50;99.90;;;;;;5038510;28;20478;-83
2021/11/01 21:53:15;;;;;;;12.85;8.65;;;10.80;99.90;;;;;;5037496;28;20034;-82
2021/11/01 21:55:41;;;;;;;8.52;4.20;;;11.00;99.90;;;;;;5036656;28;20412;-82
2021/11/01 21:58:18;;;;;;;7.47;3.40;;;10.60;99.90;;;;;;5034959;28;20025;-84
2021/11/01 22:01:01;;;;;;;5.60;4.13;;;10.50;99.90;;;;;;5033813;28;20034;-83
2021/11/01 22:19:48;;;;;;;4.32;2.13;;;10.70;99.90;;;;;;5036947;28;20032;-81
2021/11/01 22:33:54;;;;;;;2.83;1.73;;;11.00;99.90;;;;;;5038138;28;20032;-84
2021/11/01 22:46:33;;;;;;;3.33;2.38;;;10.80;99.90;;;;;;5033605;28;20060;-82
2021/11/01 22:57:09;;;;;;;4.43;1.67;;;10.80;99.90;;;;;;5033949;28;20040;-81
2021/11/01 22:59:37;;;;;;;3.58;1.30;;;10.60;99.90;;;;;;5035831;28;20029;-81
2021/11/01 23:02:03;;;;;;;3.78;1.45;;;10.90;99.90;;;;;;5035465;28;20037;-81
2021/11/01 23:31:28;;;;;;;3.80;1.85;;;11.30;99.90;;;;;;5040140;28;20043;-80
2021/11/01 23:32:04;;;;;;;2.63;1.70;;;10.90;99.90;;;;;;5039319;28;20863;-81
2021/11/01 23:34:30;;;;;;;3.13;2.00;;;11.00;99.90;;;;;;5022518;28;20029;-81
2021/11/01 23:36:56;;;;;;;2.85;1.83;;;11.10;99.90;;;;;;5035464;28;20382;-81
2021/11/01 23:39:25;;;;;;;2.60;1.92;;;11.30;99.90;;;;;;5038410;28;20025;-83
2021/11/01 23:41:55;;;;;;;10.30;5.95;;;11.10;99.90;;;;;;5039405;28;20028;-81
2021/11/01 23:44:28;;;;;;;4.47;2.80;;;11.10;99.90;;;;;;5039111;28;20052;-82
2021/11/01 23:46:54;;;;;;;3.00;1.70;;;11.20;99.90;;;;;;5039620;28;20036;-82
2021/11/01 23:49:23;;;;;;;2.70;1.30;;;11.20;99.90;;;;;;5038097;28;20529;-83
2021/11/01 23:52:01;;;;;;;2.92;1.48;;;11.10;99.90;;;;;;5036355;28;20399;-82
2021/11/01 23:54:38;;;;;;;2.95;1.38;;;11.10;99.90;;;;;;5043919;28;20040;-83
2021/11/01 23:57:05;;;;;;;2.30;1.55;;;11.20;99.90;;;;;;5039403;28;20489;-82
2021/11/01 23:59:31;;;;;;;2.38;1.25;;;11.20;99.90;;;;;;5038841;28;20086;-82
